sensor_id;sensor_type;location;lat;lon;timestamp;temperature;humidity
46037;DHT22;31769;49.304;8.428;2023-04-24T17:01:58;13.30;99.90
46037;DHT22;31769;49.304;8.428;2023-04-24T17:04:59;12.90;99.90
46037;DHT22;31769;49.304;8.428;2023-04-24T17:08:00;12.80;99.90
46037;DHT22;31769;49.304;8.428;2023-04-24T17:11:01;12.70;99.90
46037;DHT22;31769;49.304;8.428;2023-04-24T17:14:01;12.60;99.90
46037;DHT22;31769;49.304;8.428;2023-04-24T17:17:02;13.20;99.90
46037;DHT22;31769;49.304;8.428;2023-04-24T17:20:03;13.60;99.90
46037;DHT22;31769;49.304;8.428;2023-04-24T17:23:05;12.90;99.90
46037;DHT22;31769;49.304;8.428;2023-04-24T17:26:05;12.50;99.90
46037;DHT22;31769;49.304;8.428;2023-04-24T17:29:06;12.30;99.90
46037;DHT22;31769;49.304;8.428;2023-04-24T17:32:07;12.10;99.90
46037;DHT22;31769;49.304;8.428;2023-04-24T17:35:08;11.90;99.90
46037;DHT22;31769;49.304;8.428;2023-04-24T17:38:09;12.20;99.90
46037;DHT22;31769;49.304;8.428;2023-04-24T17:41:10;13.30;99.90
46037;DHT22;31769;49.304;8.428;2023-04-24T17:44:11;13.40;99.90
46037;DHT22;31769;49.304;8.428;2023-04-24T17:47:11;12.80;99.90
46037;DHT22;31769;49.304;8.428;2023-04-24T17:50:12;12.40;99.90
46037;DHT22;31769;49.304;8.428;2023-04-24T17:53:14;12.10;99.90
46037;DHT22;31769;49.304;8.428;2023-04-24T17:56:15;12.00;99.90
46037;DHT22;31769;49.304;8.428;2023-04-24T17:59:16;11.80;99.90
46037;DHT22;31769;49.304;8.428;2023-04-24T18:02:16;11.60;99.90
46037;DHT22;31769;49.304;8.428;2023-04-24T18:05:17;11.60;99.90
46037;DHT22;31769;49.304;8.428;2023-04-24T18:08:18;11.50;99.90
46037;DHT22;31769;49.304;8.428;2023-04-24T18:11:19;11.60;99.90
46037;DHT22;31769;49.304;8.428;2023-04-24T18:14:19;11.50;99.90
46037;DHT22;31769;49.304;8.428;2023-04-24T18:17:20;11.30;99.90
46037;DHT22;31769;49.304;8.428;2023-04-24T18:20:21;11.30;99.90
46037;DHT22;31769;49.304;8.428;2023-04-24T18:23:22;11.20;99.90
46037;DHT22;31769;49.304;8.428;2023-04-24T18:26:22;11.30;99.90
46037;DHT22;31769;49.304;8.428;2023-04-24T18:29:23;11.20;99.90
46037;DHT22;31769;49.304;8.428;2023-04-24T18:32:24;11.30;99.90
46037;DHT22;31769;49.304;8.428;2023-04-24T18:35:25;11.30;99.90
46037;DHT22;31769;49.304;8.428;2023-04-24T18:38:26;11.20;99.90
46037;DHT22;31769;49.304;8.428;2023-04-24T18:41:27;11.20;99.90
46037;DHT22;31769;49.304;8.428;2023-04-24T18:44:28;11.10;99.90
46037;DHT22;31769;49.304;8.428;2023-04-24T18:47:29;11.20;99.90
46037;DHT22;31769;49.304;8.428;2023-04-24T18:50:30;11.10;99.90
46037;DHT22;31769;49.304;8.428;2023-04-24T18:53:31;11.00;99.90
46037;DHT22;31769;49.304;8.428;2023-04-24T18:56:32;10.90;99.90
46037;DHT22;31769;49.304;8.428;2023-04-24T18:59:33;11.00;99.90
46037;DHT22;31769;49.304;8.428;2023-04-24T19:02:33;10.80;99.90
46037;DHT22;31769;49.304;8.428;2023-04-24T19:05:34;10.60;99.90
46037;DHT22;31769;49.304;8.428;2023-04-24T19:08:35;10.50;99.90
46037;DHT22;31769;49.304;8.428;2023-04-24T19:11:37;10.50;99.90
46037;DHT22;31769;49.304;8.428;2023-04-24T19:14:38;10.40;99.90
46037;DHT22;31769;49.304;8.428;2023-04-24T19:17:39;10.30;99.90
46037;DHT22;31769;49.304;8.428;2023-04-24T19:20:40;10.20;99.90
46037;DHT22;31769;49.304;8.428;2023-04-24T19:23:40;10.20;99.90
46037;DHT22;31769;49.304;8.428;2023-04-24T19:26:41;10.10;99.90
46037;DHT22;31769;49.304;8.428;2023-04-24T19:29:42;10.10;99.90
46037;DHT22;31769;49.304;8.428;2023-04-24T19:32:42;10.10;99.90
46037;DHT22;31769;49.304;8.428;2023-04-24T19:35:43;10.10;99.90
46037;DHT22;31769;49.304;8.428;2023-04-24T19:38:44;10.00;99.90
46037;DHT22;31769;49.304;8.428;2023-04-24T19:41:45;10.10;99.90
46037;DHT22;31769;49.304;8.428;2023-04-24T19:44:46;10.00;99.90
46037;DHT22;31769;49.304;8.428;2023-04-24T19:47:47;10.00;99.90
46037;DHT22;31769;49.304;8.428;2023-04-24T19:50:48;10.10;99.90
46037;DHT22;31769;49.304;8.428;2023-04-24T19:53:48;10.00;99.90
46037;DHT22;31769;49.304;8.428;2023-04-24T19:56:49;10.10;99.90
46037;DHT22;31769;49.304;8.428;2023-04-24T19:59:50;10.00;99.90
46037;DHT22;31769;49.304;8.428;2023-04-24T20:02:50;10.00;99.90
46037;DHT22;31769;49.304;8.428;2023-04-24T20:05:51;10.10;99.90
46037;DHT22;31769;49.304;8.428;2023-04-24T20:08:52;10.00;99.90
46037;DHT22;31769;49.304;8.428;2023-04-24T20:11:52;10.10;99.90
46037;DHT22;31769;49.304;8.428;2023-04-24T20:14:53;10.00;99.90
46037;DHT22;31769;49.304;8.428;2023-04-24T20:17:54;10.00;99.90
46037;DHT22;31769;49.304;8.428;2023-04-24T20:20:55;10.00;99.90
46037;DHT22;31769;49.304;8.428;2023-04-24T20:23:59;10.00;99.90
46037;DHT22;31769;49.304;8.428;2023-04-24T20:26:59;10.00;99.90
46037;DHT22;31769;49.304;8.428;2023-04-24T20:30:03;10.00;99.90
46037;DHT22;31769;49.304;8.428;2023-04-24T20:33:04;10.00;99.90
46037;DHT22;31769;49.304;8.428;2023-04-24T20:36:04;9.90;99.90
46037;DHT22;31769;49.304;8.428;2023-04-24T20:39:05;9.90;99.90
46037;DHT22;31769;49.304;8.428;2023-04-24T20:42:06;9.80;99.90
46037;DHT22;31769;49.304;8.428;2023-04-24T20:45:07;9.90;99.90
46037;DHT22;31769;49.304;8.428;2023-04-24T20:48:08;9.90;99.90
46037;DHT22;31769;49.304;8.428;2023-04-24T20:51:10;9.90;99.90
46037;DHT22;31769;49.304;8.428;2023-04-24T20:54:11;10.00;99.90
46037;DHT22;31769;49.304;8.428;2023-04-24T20:57:11;10.00;99.90
46037;DHT22;31769;49.304;8.428;2023-04-24T21:00:13;10.00;99.90
46037;DHT22;31769;49.304;8.428;2023-04-24T21:03:14;10.00;99.90
46037;DHT22;31769;49.304;8.428;2023-04-24T21:06:14;10.00;99.90
46037;DHT22;31769;49.304;8.428;2023-04-24T21:09:15;10.00;99.90
46037;DHT22;31769;49.304;8.428;2023-04-24T21:12:16;10.00;99.90
46037;DHT22;31769;49.304;8.428;2023-04-24T21:15:17;10.00;99.90
46037;DHT22;31769;49.304;8.428;2023-04-24T21:18:18;10.00;99.90
46037;DHT22;31769;49.304;8.428;2023-04-24T21:21:18;10.00;99.90
46037;DHT22;31769;49.304;8.428;2023-04-24T21:24:19;10.00;99.90
46037;DHT22;31769;49.304;8.428;2023-04-24T21:27:19;10.00;99.90
46037;DHT22;31769;49.304;8.428;2023-04-24T21:30:20;9.90;99.90
46037;DHT22;31769;49.304;8.428;2023-04-24T21:33:21;9.90;99.90
46037;DHT22;31769;49.304;8.428;2023-04-24T21:36:22;9.90;99.90
46037;DHT22;31769;49.304;8.428;2023-04-24T21:39:23;9.90;99.90
46037;DHT22;31769;49.304;8.428;2023-04-24T21:42:24;9.90;99.90
46037;DHT22;31769;49.304;8.428;2023-04-24T21:45:24;9.80;99.90
46037;DHT22;31769;49.304;8.428;2023-04-24T21:48:25;9.80;99.90
46037;DHT22;31769;49.304;8.428;2023-04-24T21:51:26;9.80;99.90
46037;DHT22;31769;49.304;8.428;2023-04-24T21:54:27;9.70;99.90
46037;DHT22;31769;49.304;8.428;2023-04-24T21:57:29;9.80;99.90
46037;DHT22;31769;49.304;8.428;2023-04-24T22:00:30;9.70;99.90
46037;DHT22;31769;49.304;8.428;2023-04-24T22:03:30;9.80;99.90
46037;DHT22;31769;49.304;8.428;2023-04-24T22:06:31;9.70;99.90
46037;DHT22;31769;49.304;8.428;2023-04-24T22:09:33;9.80;99.90
46037;DHT22;31769;49.304;8.428;2023-04-24T22:12:34;9.70;99.90
46037;DHT22;31769;49.304;8.428;2023-04-24T22:15:34;9.70;99.90
46037;DHT22;31769;49.304;8.428;2023-04-24T22:18:35;9.70;99.90
46037;DHT22;31769;49.304;8.428;2023-04-24T22:21:36;9.60;99.90
46037;DHT22;31769;49.304;8.428;2023-04-24T22:24:36;9.60;99.90
46037;DHT22;31769;49.304;8.428;2023-04-24T22:27:37;9.60;99.90
46037;DHT22;31769;49.304;8.428;2023-04-24T22:30:38;9.60;99.90
46037;DHT22;31769;49.304;8.428;2023-04-24T22:33:38;9.60;99.90
46037;DHT22;31769;49.304;8.428;2023-04-24T22:36:39;9.60;99.90
46037;DHT22;31769;49.304;8.428;2023-04-24T22:39:40;9.60;99.90
46037;DHT22;31769;49.304;8.428;2023-04-24T22:42:40;9.60;99.90
46037;DHT22;31769;49.304;8.428;2023-04-24T22:45:41;9.50;99.90
46037;DHT22;31769;49.304;8.428;2023-04-24T22:48:42;9.50;99.90
46037;DHT22;31769;49.304;8.428;2023-04-24T22:51:43;9.50;99.90
46037;DHT22;31769;49.304;8.428;2023-04-24T22:54:44;9.50;99.90
46037;DHT22;31769;49.304;8.428;2023-04-24T22:57:46;9.50;99.90
46037;DHT22;31769;49.304;8.428;2023-04-24T23:00:47;9.50;99.90
46037;DHT22;31769;49.304;8.428;2023-04-24T23:03:47;9.50;99.90
46037;DHT22;31769;49.304;8.428;2023-04-24T23:06:48;9.50;99.90
46037;DHT22;31769;49.304;8.428;2023-04-24T23:09:49;9.50;99.90
46037;DHT22;31769;49.304;8.428;2023-04-24T23:12:49;9.50;99.90
46037;DHT22;31769;49.304;8.428;2023-04-24T23:15:50;9.50;99.90
46037;DHT22;31769;49.304;8.428;2023-04-24T23:18:51;9.50;99.90
46037;DHT22;31769;49.304;8.428;2023-04-24T23:21:51;9.50;99.90
46037;DHT22;31769;49.304;8.428;2023-04-24T23:24:52;9.50;99.90
46037;DHT22;31769;49.304;8.428;2023-04-24T23:27:53;9.40;99.90
46037;DHT22;31769;49.304;8.428;2023-04-24T23:30:53;9.40;99.90
46037;DHT22;31769;49.304;8.428;2023-04-24T23:33:54;9.40;99.90
46037;DHT22;31769;49.304;8.428;2023-04-24T23:36:55;9.40;99.90
46037;DHT22;31769;49.304;8.428;2023-04-24T23:39:55;9.30;99.90
46037;DHT22;31769;49.304;8.428;2023-04-24T23:42:56;9.30;99.90
46037;DHT22;31769;49.304;8.428;2023-04-24T23:45:57;9.30;99.90
46037;DHT22;31769;49.304;8.428;2023-04-24T23:48:57;9.30;99.90
46037;DHT22;31769;49.304;8.428;2023-04-24T23:51:58;9.30;99.90
46037;DHT22;31769;49.304;8.428;2023-04-24T23:54:59;9.30;99.90
46037;DHT22;31769;49.304;8.428;2023-04-24T23:58:00;9.30;99.90
